sensor_id;sensor_type;location;lat;lon;timestamp;P1;durP1;ratioP1;P2;durP2;ratioP2
31091;SDS011;67728;53.122;12.776;2023-09-18T00:01:30;1460.17;;;999.90;;
31091;SDS011;67728;53.122;12.776;2023-09-18T00:03:02;1473.17;;;999.90;;
31091;SDS011;67728;53.122;12.776;2023-09-18T00:04:33;1473.07;;;999.90;;
31091;SDS011;67728;53.122;12.776;2023-09-18T00:06:05;1464.53;;;999.90;;
31091;SDS011;67728;53.122;12.776;2023-09-18T00:07:35;1470.97;;;999.90;;
31091;SDS011;67728;53.122;12.776;2023-09-18T00:09:07;1465.13;;;999.90;;
31091;SDS011;67728;53.122;12.776;2023-09-18T00:10:41;1465.00;;;999.90;;
31091;SDS011;67728;53.122;12.776;2023-09-18T00:12:15;1462.33;;;999.90;;
31091;SDS011;67728;53.122;12.776;2023-09-18T00:13:45;1466.97;;;999.90;;
31091;SDS011;67728;53.122;12.776;2023-09-18T00:15:17;1476.00;;;999.90;;
31091;SDS011;67728;53.122;12.776;2023-09-18T00:16:48;1455.97;;;999.90;;
31091;SDS011;67728;53.122;12.776;2023-09-18T00:18:21;1465.10;;;999.90;;
31091;SDS011;67728;53.122;12.776;2023-09-18T00:19:52;1470.20;;;999.90;;
31091;SDS011;67728;53.122;12.776;2023-09-18T00:21:24;1461.63;;;999.90;;
31091;SDS011;67728;53.122;12.776;2023-09-18T00:22:55;1454.97;;;999.90;;
31091;SDS011;67728;53.122;12.776;2023-09-18T00:24:27;1463.47;;;999.90;;
31091;SDS011;67728;53.122;12.776;2023-09-18T00:25:58;1437.07;;;999.90;;
31091;SDS011;67728;53.122;12.776;2023-09-18T00:27:31;1442.97;;;999.90;;
31091;SDS011;67728;53.122;12.776;2023-09-18T00:29:02;1435.23;;;999.90;;
31091;SDS011;67728;53.122;12.776;2023-09-18T00:30:34;1440.67;;;999.90;;
31091;SDS011;67728;53.122;12.776;2023-09-18T00:32:06;1438.17;;;999.90;;
31091;SDS011;67728;53.122;12.776;2023-09-18T00:33:37;1426.43;;;999.90;;
31091;SDS011;67728;53.122;12.776;2023-09-18T00:35:09;1430.77;;;999.90;;
31091;SDS011;67728;53.122;12.776;2023-09-18T00:36:40;1432.97;;;999.90;;
31091;SDS011;67728;53.122;12.776;2023-09-18T00:38:12;1437.17;;;999.90;;
31091;SDS011;67728;53.122;12.776;2023-09-18T00:39:43;1442.73;;;999.90;;
31091;SDS011;67728;53.122;12.776;2023-09-18T00:41:14;1452.20;;;999.90;;
31091;SDS011;67728;53.122;12.776;2023-09-18T00:42:46;1430.87;;;999.90;;
31091;SDS011;67728;53.122;12.776;2023-09-18T00:44:18;1437.83;;;999.90;;
31091;SDS011;67728;53.122;12.776;2023-09-18T00:45:48;1437.03;;;999.90;;
31091;SDS011;67728;53.122;12.776;2023-09-18T00:47:20;1437.30;;;999.90;;
31091;SDS011;67728;53.122;12.776;2023-09-18T00:48:51;1435.17;;;999.90;;
31091;SDS011;67728;53.122;12.776;2023-09-18T00:50:24;1441.93;;;999.90;;
31091;SDS011;67728;53.122;12.776;2023-09-18T00:51:56;1437.20;;;999.90;;
31091;SDS011;67728;53.122;12.776;2023-09-18T00:53:28;1427.90;;;999.90;;
31091;SDS011;67728;53.122;12.776;2023-09-18T00:54:59;1423.10;;;999.90;;
31091;SDS011;67728;53.122;12.776;2023-09-18T00:56:32;1447.77;;;999.90;;
31091;SDS011;67728;53.122;12.776;2023-09-18T00:58:04;1430.47;;;999.90;;
31091;SDS011;67728;53.122;12.776;2023-09-18T00:59:37;1435.17;;;999.90;;
31091;SDS011;67728;53.122;12.776;2023-09-18T01:01:09;1423.60;;;999.90;;
31091;SDS011;67728;53.122;12.776;2023-09-18T01:02:42;1430.70;;;999.90;;
31091;SDS011;67728;53.122;12.776;2023-09-18T01:04:13;1429.40;;;999.90;;
31091;SDS011;67728;53.122;12.776;2023-09-18T01:05:45;1430.43;;;999.90;;
31091;SDS011;67728;53.122;12.776;2023-09-18T01:07:15;1437.53;;;999.90;;
31091;SDS011;67728;53.122;12.776;2023-09-18T01:08:48;1428.03;;;999.90;;
31091;SDS011;67728;53.122;12.776;2023-09-18T01:10:23;1431.30;;;999.90;;
31091;SDS011;67728;53.122;12.776;2023-09-18T01:12:01;1431.80;;;999.90;;
31091;SDS011;67728;53.122;12.776;2023-09-18T01:13:41;1440.20;;;999.90;;
31091;SDS011;67728;53.122;12.776;2023-09-18T01:15:22;1435.50;;;999.90;;
31091;SDS011;67728;53.122;12.776;2023-09-18T01:16:56;1436.23;;;999.90;;
31091;SDS011;67728;53.122;12.776;2023-09-18T01:18:29;1432.03;;;999.90;;
31091;SDS011;67728;53.122;12.776;2023-09-18T01:20:00;1430.60;;;999.90;;
31091;SDS011;67728;53.122;12.776;2023-09-18T01:21:31;1434.27;;;999.90;;
31091;SDS011;67728;53.122;12.776;2023-09-18T01:23:04;1440.20;;;999.90;;
31091;SDS011;67728;53.122;12.776;2023-09-18T01:24:35;1438.87;;;999.90;;
31091;SDS011;67728;53.122;12.776;2023-09-18T01:26:07;1437.97;;;999.90;;
31091;SDS011;67728;53.122;12.776;2023-09-18T01:27:38;1439.07;;;999.90;;
31091;SDS011;67728;53.122;12.776;2023-09-18T01:29:10;1456.70;;;999.90;;
31091;SDS011;67728;53.122;12.776;2023-09-18T01:30:41;1473.83;;;999.90;;
31091;SDS011;67728;53.122;12.776;2023-09-18T01:32:13;1450.00;;;999.90;;
31091;SDS011;67728;53.122;12.776;2023-09-18T01:33:44;1451.90;;;999.90;;
31091;SDS011;67728;53.122;12.776;2023-09-18T01:35:18;1449.77;;;999.90;;
31091;SDS011;67728;53.122;12.776;2023-09-18T01:36:50;1440.27;;;999.90;;
31091;SDS011;67728;53.122;12.776;2023-09-18T01:38:24;1456.87;;;999.90;;
31091;SDS011;67728;53.122;12.776;2023-09-18T01:39:57;1446.77;;;999.90;;
31091;SDS011;67728;53.122;12.776;2023-09-18T01:41:29;1446.00;;;999.90;;
31091;SDS011;67728;53.122;12.776;2023-09-18T01:43:01;1447.63;;;999.90;;
31091;SDS011;67728;53.122;12.776;2023-09-18T01:44:31;1447.80;;;999.90;;
31091;SDS011;67728;53.122;12.776;2023-09-18T01:46:04;1440.67;;;999.90;;
31091;SDS011;67728;53.122;12.776;2023-09-18T01:47:36;1442.87;;;999.90;;
31091;SDS011;67728;53.122;12.776;2023-09-18T01:49:07;1450.33;;;999.90;;
31091;SDS011;67728;53.122;12.776;2023-09-18T01:50:39;1453.30;;;999.90;;
31091;SDS011;67728;53.122;12.776;2023-09-18T01:52:10;1446.57;;;999.90;;
31091;SDS011;67728;53.122;12.776;2023-09-18T01:53:43;1447.43;;;999.90;;
31091;SDS011;67728;53.122;12.776;2023-09-18T01:55:14;1451.20;;;999.90;;
31091;SDS011;67728;53.122;12.776;2023-09-18T01:56:45;1447.30;;;999.90;;
31091;SDS011;67728;53.122;12.776;2023-09-18T01:58:16;1447.53;;;999.90;;
31091;SDS011;67728;53.122;12.776;2023-09-18T01:59:48;1443.20;;;999.90;;
31091;SDS011;67728;53.122;12.776;2023-09-18T02:01:19;1446.13;;;999.90;;
31091;SDS011;67728;53.122;12.776;2023-09-18T02:02:50;1442.30;;;999.90;;
31091;SDS011;67728;53.122;12.776;2023-09-18T02:04:22;1448.47;;;999.90;;
31091;SDS011;67728;53.122;12.776;2023-09-18T02:05:52;1428.60;;;999.90;;
31091;SDS011;67728;53.122;12.776;2023-09-18T02:07:24;1442.27;;;999.90;;
31091;SDS011;67728;53.122;12.776;2023-09-18T02:08:57;1440.03;;;999.90;;
31091;SDS011;67728;53.122;12.776;2023-09-18T02:10:28;1438.00;;;999.90;;
31091;SDS011;67728;53.122;12.776;2023-09-18T02:11:59;1442.73;;;999.90;;
31091;SDS011;67728;53.122;12.776;2023-09-18T02:13:30;1432.03;;;999.90;;
31091;SDS011;67728;53.122;12.776;2023-09-18T02:15:02;1434.97;;;999.90;;
31091;SDS011;67728;53.122;12.776;2023-09-18T02:16:37;1446.87;;;999.90;;
31091;SDS011;67728;53.122;12.776;2023-09-18T02:18:11;1442.50;;;999.90;;
31091;SDS011;67728;53.122;12.776;2023-09-18T02:19:42;1436.53;;;999.90;;
31091;SDS011;67728;53.122;12.776;2023-09-18T02:21:18;1438.60;;;999.90;;
31091;SDS011;67728;53.122;12.776;2023-09-18T02:22:49;1444.43;;;999.90;;
31091;SDS011;67728;53.122;12.776;2023-09-18T02:24:22;1431.13;;;999.90;;
31091;SDS011;67728;53.122;12.776;2023-09-18T02:25:57;1436.40;;;999.90;;
31091;SDS011;67728;53.122;12.776;2023-09-18T02:27:29;1437.53;;;999.90;;
31091;SDS011;67728;53.122;12.776;2023-09-18T02:29:00;1435.83;;;999.90;;
31091;SDS011;67728;53.122;12.776;2023-09-18T02:30:33;1431.47;;;999.90;;
31091;SDS011;67728;53.122;12.776;2023-09-18T02:32:04;1432.80;;;999.90;;
31091;SDS011;67728;53.122;12.776;2023-09-18T02:33:36;1423.27;;;999.90;;
31091;SDS011;67728;53.122;12.776;2023-09-18T02:35:07;1429.23;;;999.90;;
31091;SDS011;67728;53.122;12.776;2023-09-18T02:36:39;1434.23;;;999.90;;
31091;SDS011;67728;53.122;12.776;2023-09-18T02:38:11;1434.97;;;999.90;;
31091;SDS011;67728;53.122;12.776;2023-09-18T02:39:43;1439.83;;;999.90;;
31091;SDS011;67728;53.122;12.776;2023-09-18T02:41:15;1447.63;;;999.90;;
31091;SDS011;67728;53.122;12.776;2023-09-18T02:42:45;1456.13;;;999.90;;
31091;SDS011;67728;53.122;12.776;2023-09-18T02:44:17;1445.47;;;999.90;;
31091;SDS011;67728;53.122;12.776;2023-09-18T02:45:47;1449.20;;;999.90;;
31091;SDS011;67728;53.122;12.776;2023-09-18T02:47:19;1433.00;;;999.90;;
31091;SDS011;67728;53.122;12.776;2023-09-18T02:48:51;1429.50;;;999.90;;
31091;SDS011;67728;53.122;12.776;2023-09-18T02:50:22;1432.97;;;999.90;;
31091;SDS011;67728;53.122;12.776;2023-09-18T02:51:54;1422.17;;;999.90;;
31091;SDS011;67728;53.122;12.776;2023-09-18T02:53:25;1437.43;;;999.90;;
31091;SDS011;67728;53.122;12.776;2023-09-18T02:54:58;1423.17;;;999.90;;
31091;SDS011;67728;53.122;12.776;2023-09-18T02:56:28;1440.50;;;999.90;;
31091;SDS011;67728;53.122;12.776;2023-09-18T02:58:00;1429.67;;;999.90;;
31091;SDS011;67728;53.122;12.776;2023-09-18T02:59:32;1418.13;;;999.90;;
31091;SDS011;67728;53.122;12.776;2023-09-18T03:01:02;1434.37;;;999.90;;
31091;SDS011;67728;53.122;12.776;2023-09-18T03:02:35;1429.23;;;999.90;;
31091;SDS011;67728;53.122;12.776;2023-09-18T03:04:06;1425.17;;;999.90;;
31091;SDS011;67728;53.122;12.776;2023-09-18T03:05:37;1442.37;;;999.90;;
31091;SDS011;67728;53.122;12.776;2023-09-18T03:07:09;1432.00;;;999.90;;
31091;SDS011;67728;53.122;12.776;2023-09-18T03:08:41;1439.17;;;999.90;;
31091;SDS011;67728;53.122;12.776;2023-09-18T03:10:14;1440.47;;;999.90;;
31091;SDS011;67728;53.122;12.776;2023-09-18T03:11:48;1429.60;;;999.90;;
31091;SDS011;67728;53.122;12.776;2023-09-18T03:13:21;1434.37;;;999.90;;
31091;SDS011;67728;53.122;12.776;2023-09-18T03:14:52;1432.97;;;999.90;;
31091;SDS011;67728;53.122;12.776;2023-09-18T03:16:23;1437.37;;;999.90;;
31091;SDS011;67728;53.122;12.776;2023-09-18T03:17:54;1427.57;;;999.90;;
31091;SDS011;67728;53.122;12.776;2023-09-18T03:19:26;1432.13;;;999.90;;
31091;SDS011;67728;53.122;12.776;2023-09-18T03:20:58;1442.00;;;999.90;;
31091;SDS011;67728;53.122;12.776;2023-09-18T03:22:28;1434.43;;;999.90;;
31091;SDS011;67728;53.122;12.776;2023-09-18T03:24:00;1425.07;;;999.90;;
31091;SDS011;67728;53.122;12.776;2023-09-18T03:25:32;1437.73;;;999.90;;
31091;SDS011;67728;53.122;12.776;2023-09-18T03:27:04;1426.50;;;999.90;;
31091;SDS011;67728;53.122;12.776;2023-09-18T03:28:36;1442.87;;;999.90;;
31091;SDS011;67728;53.122;12.776;2023-09-18T03:30:07;1437.53;;;999.90;;
31091;SDS011;67728;53.122;12.776;2023-09-18T03:31:40;1437.63;;;999.90;;
31091;SDS011;67728;53.122;12.776;2023-09-18T03:33:12;1441.87;;;999.90;;
31091;SDS011;67728;53.122;12.776;2023-09-18T03:34:43;1437.20;;;999.90;;
31091;SDS011;67728;53.122;12.776;2023-09-18T03:36:14;1503.73;;;999.90;;
31091;SDS011;67728;53.122;12.776;2023-09-18T03:37:46;1446.57;;;999.90;;
31091;SDS011;67728;53.122;12.776;2023-09-18T03:39:18;1439.53;;;999.90;;
31091;SDS011;67728;53.122;12.776;2023-09-18T03:40:51;1432.03;;;999.90;;
31091;SDS011;67728;53.122;12.776;2023-09-18T03:42:22;1449.17;;;999.90;;
31091;SDS011;67728;53.122;12.776;2023-09-18T03:43:53;1440.23;;;999.90;;
31091;SDS011;67728;53.122;12.776;2023-09-18T03:45:25;1431.43;;;999.90;;
31091;SDS011;67728;53.122;12.776;2023-09-18T03:46:56;1436.20;;;999.90;;
31091;SDS011;67728;53.122;12.776;2023-09-18T03:48:28;1435.90;;;999.90;;
31091;SDS011;67728;53.122;12.776;2023-09-18T03:50:01;1440.13;;;999.90;;
31091;SDS011;67728;53.122;12.776;2023-09-18T03:51:32;1442.20;;;999.90;;
31091;SDS011;67728;53.122;12.776;2023-09-18T03:53:03;1436.30;;;999.90;;
31091;SDS011;67728;53.122;12.776;2023-09-18T03:54:35;1435.33;;;999.90;;
31091;SDS011;67728;53.122;12.776;2023-09-18T03:56:07;1441.03;;;999.90;;
31091;SDS011;67728;53.122;12.776;2023-09-18T03:57:38;1443.03;;;999.90;;
31091;SDS011;67728;53.122;12.776;2023-09-18T03:59:10;1443.27;;;999.90;;
31091;SDS011;67728;53.122;12.776;2023-09-18T04:00:41;1444.03;;;999.90;;
31091;SDS011;67728;53.122;12.776;2023-09-18T04:02:13;1457.87;;;999.90;;
31091;SDS011;67728;53.122;12.776;2023-09-18T04:03:43;1450.73;;;999.90;;
31091;SDS011;67728;53.122;12.776;2023-09-18T04:05:16;1452.20;;;999.90;;
31091;SDS011;67728;53.122;12.776;2023-09-18T04:06:47;1436.73;;;999.90;;
31091;SDS011;67728;53.122;12.776;2023-09-18T04:08:19;1445.07;;;999.90;;
31091;SDS011;67728;53.122;12.776;2023-09-18T04:09:50;1450.77;;;999.90;;
31091;SDS011;67728;53.122;12.776;2023-09-18T04:11:23;1508.73;;;999.90;;
31091;SDS011;67728;53.122;12.776;2023-09-18T04:12:56;1456.30;;;999.90;;
31091;SDS011;67728;53.122;12.776;2023-09-18T04:14:27;1442.33;;;999.90;;
31091;SDS011;67728;53.122;12.776;2023-09-18T04:15:58;1447.40;;;999.90;;
31091;SDS011;67728;53.122;12.776;2023-09-18T04:17:30;1431.87;;;999.90;;
31091;SDS011;67728;53.122;12.776;2023-09-18T04:19:01;1439.60;;;999.90;;
31091;SDS011;67728;53.122;12.776;2023-09-18T04:20:33;1437.67;;;999.90;;
31091;SDS011;67728;53.122;12.776;2023-09-18T04:22:05;1453.60;;;999.90;;
31091;SDS011;67728;53.122;12.776;2023-09-18T04:23:38;1448.97;;;999.90;;
31091;SDS011;67728;53.122;12.776;2023-09-18T04:25:08;1442.37;;;999.90;;
31091;SDS011;67728;53.122;12.776;2023-09-18T04:26:42;1461.73;;;999.90;;
31091;SDS011;67728;53.122;12.776;2023-09-18T04:28:12;1447.23;;;999.90;;
31091;SDS011;67728;53.122;12.776;2023-09-18T04:29:44;1442.00;;;999.90;;
31091;SDS011;67728;53.122;12.776;2023-09-18T04:31:16;1463.30;;;999.90;;
31091;SDS011;67728;53.122;12.776;2023-09-18T04:32:47;1454.60;;;999.90;;
31091;SDS011;67728;53.122;12.776;2023-09-18T04:34:18;1456.83;;;999.90;;
31091;SDS011;67728;53.122;12.776;2023-09-18T04:35:49;1492.17;;;999.90;;
31091;SDS011;67728;53.122;12.776;2023-09-18T04:37:20;1554.97;;;999.90;;
31091;SDS011;67728;53.122;12.776;2023-09-18T04:38:52;1570.23;;;999.90;;
31091;SDS011;67728;53.122;12.776;2023-09-18T04:40:22;1586.87;;;999.90;;
31091;SDS011;67728;53.122;12.776;2023-09-18T04:41:56;1557.27;;;999.90;;
31091;SDS011;67728;53.122;12.776;2023-09-18T04:43:26;1576.70;;;999.90;;
31091;SDS011;67728;53.122;12.776;2023-09-18T04:44:59;1501.50;;;999.90;;
31091;SDS011;67728;53.122;12.776;2023-09-18T04:46:30;1641.40;;;999.90;;
31091;SDS011;67728;53.122;12.776;2023-09-18T04:48:02;1527.27;;;999.90;;
31091;SDS011;67728;53.122;12.776;2023-09-18T04:49:33;1515.07;;;999.90;;
31091;SDS011;67728;53.122;12.776;2023-09-18T04:51:04;1445.23;;;999.90;;
31091;SDS011;67728;53.122;12.776;2023-09-18T04:52:36;1454.87;;;999.90;;
31091;SDS011;67728;53.122;12.776;2023-09-18T04:54:07;1452.00;;;999.90;;
31091;SDS011;67728;53.122;12.776;2023-09-18T04:55:38;1448.13;;;999.90;;
31091;SDS011;67728;53.122;12.776;2023-09-18T04:57:10;1454.60;;;999.90;;
31091;SDS011;67728;53.122;12.776;2023-09-18T04:58:42;1459.03;;;999.90;;
31091;SDS011;67728;53.122;12.776;2023-09-18T05:00:13;1461.80;;;999.90;;
31091;SDS011;67728;53.122;12.776;2023-09-18T05:01:45;1505.03;;;999.90;;
31091;SDS011;67728;53.122;12.776;2023-09-18T05:03:15;1439.60;;;999.90;;
31091;SDS011;67728;53.122;12.776;2023-09-18T05:04:47;1444.27;;;999.90;;
31091;SDS011;67728;53.122;12.776;2023-09-18T05:06:18;1452.37;;;999.90;;
31091;SDS011;67728;53.122;12.776;2023-09-18T05:07:49;1445.77;;;999.90;;
31091;SDS011;67728;53.122;12.776;2023-09-18T05:09:20;1450.60;;;999.90;;
31091;SDS011;67728;53.122;12.776;2023-09-18T05:10:52;1451.57;;;999.90;;
31091;SDS011;67728;53.122;12.776;2023-09-18T05:12:24;1448.87;;;999.90;;
31091;SDS011;67728;53.122;12.776;2023-09-18T05:13:56;1448.53;;;999.90;;
31091;SDS011;67728;53.122;12.776;2023-09-18T05:15:28;1440.63;;;999.90;;
31091;SDS011;67728;53.122;12.776;2023-09-18T05:16:59;1430.27;;;999.90;;
31091;SDS011;67728;53.122;12.776;2023-09-18T05:18:31;1442.40;;;999.90;;
31091;SDS011;67728;53.122;12.776;2023-09-18T05:20:01;1440.53;;;999.90;;
31091;SDS011;67728;53.122;12.776;2023-09-18T05:21:35;1444.73;;;999.90;;
31091;SDS011;67728;53.122;12.776;2023-09-18T05:23:06;1440.33;;;999.90;;
31091;SDS011;67728;53.122;12.776;2023-09-18T05:24:38;1447.50;;;999.90;;
31091;SDS011;67728;53.122;12.776;2023-09-18T05:26:10;1447.87;;;999.90;;
31091;SDS011;67728;53.122;12.776;2023-09-18T05:27:42;1448.40;;;999.90;;
31091;SDS011;67728;53.122;12.776;2023-09-18T05:29:15;1447.43;;;999.90;;
31091;SDS011;67728;53.122;12.776;2023-09-18T05:30:45;1448.77;;;999.90;;
31091;SDS011;67728;53.122;12.776;2023-09-18T05:32:17;1444.87;;;999.90;;
31091;SDS011;67728;53.122;12.776;2023-09-18T05:33:47;1442.87;;;999.90;;
31091;SDS011;67728;53.122;12.776;2023-09-18T05:35:19;1447.50;;;999.90;;
31091;SDS011;67728;53.122;12.776;2023-09-18T05:36:51;1504.40;;;999.90;;
31091;SDS011;67728;53.122;12.776;2023-09-18T05:38:22;1447.10;;;999.90;;
31091;SDS011;67728;53.122;12.776;2023-09-18T05:39:54;1451.73;;;999.90;;
31091;SDS011;67728;53.122;12.776;2023-09-18T05:41:25;1453.47;;;999.90;;
31091;SDS011;67728;53.122;12.776;2023-09-18T05:43:00;1450.80;;;999.90;;
31091;SDS011;67728;53.122;12.776;2023-09-18T05:44:30;1448.20;;;999.90;;
31091;SDS011;67728;53.122;12.776;2023-09-18T05:46:03;1438.37;;;999.90;;
31091;SDS011;67728;53.122;12.776;2023-09-18T05:47:35;1436.50;;;999.90;;
31091;SDS011;67728;53.122;12.776;2023-09-18T05:49:05;1442.00;;;999.90;;
31091;SDS011;67728;53.122;12.776;2023-09-18T05:50:38;1449.60;;;999.90;;
31091;SDS011;67728;53.122;12.776;2023-09-18T05:52:08;1451.27;;;999.90;;
31091;SDS011;67728;53.122;12.776;2023-09-18T05:53:40;1455.30;;;999.90;;
31091;SDS011;67728;53.122;12.776;2023-09-18T05:55:12;1455.23;;;999.90;;
31091;SDS011;67728;53.122;12.776;2023-09-18T05:56:44;1448.97;;;999.90;;
31091;SDS011;67728;53.122;12.776;2023-09-18T05:58:17;1455.33;;;999.90;;
31091;SDS011;67728;53.122;12.776;2023-09-18T05:59:52;1454.67;;;999.90;;
31091;SDS011;67728;53.122;12.776;2023-09-18T06:01:22;1454.33;;;999.90;;
31091;SDS011;67728;53.122;12.776;2023-09-18T06:02:55;1458.40;;;999.90;;
31091;SDS011;67728;53.122;12.776;2023-09-18T06:04:25;1451.63;;;999.90;;
31091;SDS011;67728;53.122;12.776;2023-09-18T06:05:59;1460.10;;;999.90;;
31091;SDS011;67728;53.122;12.776;2023-09-18T06:07:30;1456.60;;;999.90;;
31091;SDS011;67728;53.122;12.776;2023-09-18T06:09:01;1458.43;;;999.90;;
31091;SDS011;67728;53.122;12.776;2023-09-18T06:10:32;1454.80;;;999.90;;
31091;SDS011;67728;53.122;12.776;2023-09-18T06:12:04;1513.50;;;999.90;;
31091;SDS011;67728;53.122;12.776;2023-09-18T06:13:37;1454.60;;;999.90;;
31091;SDS011;67728;53.122;12.776;2023-09-18T06:15:09;1461.77;;;999.90;;
31091;SDS011;67728;53.122;12.776;2023-09-18T06:16:40;1464.00;;;999.90;;
31091;SDS011;67728;53.122;12.776;2023-09-18T06:18:11;1469.20;;;999.90;;
31091;SDS011;67728;53.122;12.776;2023-09-18T06:19:43;1485.03;;;999.90;;
31091;SDS011;67728;53.122;12.776;2023-09-18T06:21:15;1467.43;;;999.90;;
31091;SDS011;67728;53.122;12.776;2023-09-18T06:22:47;1464.40;;;999.90;;
31091;SDS011;67728;53.122;12.776;2023-09-18T06:24:17;1463.53;;;999.90;;
31091;SDS011;67728;53.122;12.776;2023-09-18T06:25:49;1461.03;;;999.90;;
31091;SDS011;67728;53.122;12.776;2023-09-18T06:27:26;1464.43;;;999.90;;
31091;SDS011;67728;53.122;12.776;2023-09-18T06:28:58;1533.37;;;999.90;;
31091;SDS011;67728;53.122;12.776;2023-09-18T06:30:30;1477.63;;;999.90;;
31091;SDS011;67728;53.122;12.776;2023-09-18T06:32:01;1472.33;;;999.90;;
31091;SDS011;67728;53.122;12.776;2023-09-18T06:33:33;1464.83;;;999.90;;
31091;SDS011;67728;53.122;12.776;2023-09-18T06:35:04;1468.50;;;999.90;;
31091;SDS011;67728;53.122;12.776;2023-09-18T06:36:36;1480.70;;;999.90;;
31091;SDS011;67728;53.122;12.776;2023-09-18T06:38:07;1468.60;;;999.90;;
31091;SDS011;67728;53.122;12.776;2023-09-18T06:39:42;1469.10;;;999.90;;
31091;SDS011;67728;53.122;12.776;2023-09-18T06:41:12;1463.40;;;999.90;;
31091;SDS011;67728;53.122;12.776;2023-09-18T06:42:44;1467.67;;;999.90;;
31091;SDS011;67728;53.122;12.776;2023-09-18T06:44:16;1475.23;;;999.90;;
31091;SDS011;67728;53.122;12.776;2023-09-18T06:45:47;1474.83;;;999.90;;
31091;SDS011;67728;53.122;12.776;2023-09-18T06:47:18;1466.33;;;999.90;;
31091;SDS011;67728;53.122;12.776;2023-09-18T06:48:50;1454.77;;;999.90;;
31091;SDS011;67728;53.122;12.776;2023-09-18T06:50:21;1459.60;;;999.90;;
31091;SDS011;67728;53.122;12.776;2023-09-18T06:51:53;1441.67;;;999.90;;
31091;SDS011;67728;53.122;12.776;2023-09-18T06:53:23;1459.20;;;999.90;;
31091;SDS011;67728;53.122;12.776;2023-09-18T06:54:55;1450.57;;;999.90;;
31091;SDS011;67728;53.122;12.776;2023-09-18T06:56:28;1457.50;;;999.90;;
31091;SDS011;67728;53.122;12.776;2023-09-18T06:58:00;1458.80;;;999.90;;
31091;SDS011;67728;53.122;12.776;2023-09-18T06:59:32;1439.83;;;999.90;;
31091;SDS011;67728;53.122;12.776;2023-09-18T07:01:03;1449.57;;;999.90;;
31091;SDS011;67728;53.122;12.776;2023-09-18T07:02:36;1454.40;;;999.90;;
31091;SDS011;67728;53.122;12.776;2023-09-18T07:04:07;1451.20;;;999.90;;
31091;SDS011;67728;53.122;12.776;2023-09-18T07:05:39;1453.90;;;999.90;;
31091;SDS011;67728;53.122;12.776;2023-09-18T07:07:12;1449.63;;;999.90;;
31091;SDS011;67728;53.122;12.776;2023-09-18T07:08:42;1446.43;;;999.90;;
31091;SDS011;67728;53.122;12.776;2023-09-18T07:10:14;1450.83;;;999.90;;
31091;SDS011;67728;53.122;12.776;2023-09-18T07:11:45;1450.43;;;999.90;;
31091;SDS011;67728;53.122;12.776;2023-09-18T07:13:17;1455.97;;;999.90;;
31091;SDS011;67728;53.122;12.776;2023-09-18T07:14:49;1449.60;;;999.90;;
31091;SDS011;67728;53.122;12.776;2023-09-18T07:16:20;1464.07;;;999.90;;
31091;SDS011;67728;53.122;12.776;2023-09-18T07:17:51;1437.93;;;999.90;;
31091;SDS011;67728;53.122;12.776;2023-09-18T07:19:23;1447.57;;;999.90;;
31091;SDS011;67728;53.122;12.776;2023-09-18T07:20:53;1435.97;;;999.90;;
31091;SDS011;67728;53.122;12.776;2023-09-18T07:22:25;1448.30;;;999.90;;
31091;SDS011;67728;53.122;12.776;2023-09-18T07:23:55;1438.80;;;999.90;;
31091;SDS011;67728;53.122;12.776;2023-09-18T07:25:27;1434.27;;;999.90;;
31091;SDS011;67728;53.122;12.776;2023-09-18T07:26:59;1439.33;;;999.90;;
31091;SDS011;67728;53.122;12.776;2023-09-18T07:28:30;1435.77;;;999.90;;
31091;SDS011;67728;53.122;12.776;2023-09-18T07:30:02;1431.50;;;999.90;;
31091;SDS011;67728;53.122;12.776;2023-09-18T07:31:35;1441.43;;;999.90;;
31091;SDS011;67728;53.122;12.776;2023-09-18T07:33:05;1460.00;;;999.90;;
31091;SDS011;67728;53.122;12.776;2023-09-18T07:34:37;1449.37;;;999.90;;
31091;SDS011;67728;53.122;12.776;2023-09-18T07:36:07;1447.03;;;999.90;;
31091;SDS011;67728;53.122;12.776;2023-09-18T07:37:40;1442.40;;;999.90;;
31091;SDS011;67728;53.122;12.776;2023-09-18T07:39:10;1440.07;;;999.90;;
31091;SDS011;67728;53.122;12.776;2023-09-18T07:40:42;1443.80;;;999.90;;
31091;SDS011;67728;53.122;12.776;2023-09-18T07:42:13;1442.50;;;999.90;;
31091;SDS011;67728;53.122;12.776;2023-09-18T07:43:44;1444.47;;;999.90;;
31091;SDS011;67728;53.122;12.776;2023-09-18T07:45:17;1450.00;;;999.90;;
31091;SDS011;67728;53.122;12.776;2023-09-18T07:46:48;1434.37;;;999.90;;
31091;SDS011;67728;53.122;12.776;2023-09-18T07:48:19;1449.10;;;999.90;;
31091;SDS011;67728;53.122;12.776;2023-09-18T07:49:51;1482.60;;;999.90;;
31091;SDS011;67728;53.122;12.776;2023-09-18T07:51:21;1461.13;;;999.90;;
31091;SDS011;67728;53.122;12.776;2023-09-18T07:52:53;1445.93;;;999.90;;
31091;SDS011;67728;53.122;12.776;2023-09-18T07:54:24;1438.93;;;999.90;;
31091;SDS011;67728;53.122;12.776;2023-09-18T07:55:56;1445.90;;;999.90;;
31091;SDS011;67728;53.122;12.776;2023-09-18T07:57:28;1438.93;;;999.90;;
31091;SDS011;67728;53.122;12.776;2023-09-18T07:59:02;1439.00;;;999.90;;
31091;SDS011;67728;53.122;12.776;2023-09-18T08:00:34;1445.22;;;999.90;;
31091;SDS011;67728;53.122;12.776;2023-09-18T08:02:06;1530.07;;;999.90;;
31091;SDS011;67728;53.122;12.776;2023-09-18T08:03:36;1435.00;;;999.90;;
31091;SDS011;67728;53.122;12.776;2023-09-18T08:05:08;1433.23;;;999.90;;
31091;SDS011;67728;53.122;12.776;2023-09-18T08:06:39;1450.40;;;999.90;;
31091;SDS011;67728;53.122;12.776;2023-09-18T08:08:11;1433.85;;;999.90;;
31091;SDS011;67728;53.122;12.776;2023-09-18T08:09:43;1424.10;;;999.90;;
31091;SDS011;67728;53.122;12.776;2023-09-18T08:11:16;1431.05;;;999.90;;
31091;SDS011;67728;53.122;12.776;2023-09-18T08:12:47;1423.55;;;999.90;;
31091;SDS011;67728;53.122;12.776;2023-09-18T08:14:20;1434.72;;;999.90;;
31091;SDS011;67728;53.122;12.776;2023-09-18T08:15:52;1433.82;;;999.90;;
31091;SDS011;67728;53.122;12.776;2023-09-18T08:17:24;1436.53;;;999.90;;
31091;SDS011;67728;53.122;12.776;2023-09-18T08:18:54;1427.43;;;999.90;;
31091;SDS011;67728;53.122;12.776;2023-09-18T08:20:26;1426.32;;;999.90;;
31091;SDS011;67728;53.122;12.776;2023-09-18T08:21:58;1412.00;;;999.90;;
31091;SDS011;67728;53.122;12.776;2023-09-18T08:23:30;1412.05;;;999.90;;
31091;SDS011;67728;53.122;12.776;2023-09-18T08:25:01;1429.05;;;999.90;;
31091;SDS011;67728;53.122;12.776;2023-09-18T08:26:33;1434.38;;;999.90;;
31091;SDS011;67728;53.122;12.776;2023-09-18T08:28:05;1434.13;;;999.90;;